createdAt,value
2018-03-27T00:00:05.840Z,6.437376
2018-03-27T00:00:18.058Z,6.437376
2018-03-27T00:00:30.202Z,6.437376
2018-03-27T00:00:42.341Z,6.437376
2018-03-27T00:00:54.488Z,6.437376
2018-03-27T00:01:06.641Z,3.218688
2018-03-27T00:01:18.834Z,3.218688
2018-03-27T00:01:30.999Z,3.218688
2018-03-27T00:01:43.242Z,3.218688
2018-03-27T00:01:55.390Z,3.218688
2018-03-27T00:02:07.518Z,3.218688
2018-03-27T00:02:19.654Z,3.218688
2018-03-27T00:02:31.792Z,6.437376
2018-03-27T00:02:43.985Z,6.437376
2018-03-27T00:02:56.131Z,8.04672
2018-03-27T00:03:08.363Z,8.04672
2018-03-27T00:03:20.509Z,8.04672
2018-03-27T00:03:32.638Z,8.04672
2018-03-27T00:03:44.759Z,8.04672
2018-03-27T00:03:56.941Z,8.04672
2018-03-27T00:04:09.074Z,8.04672
2018-03-27T00:04:21.209Z,9.656064
2018-03-27T00:04:33.375Z,9.656064
2018-03-27T00:04:45.511Z,9.656064
2018-03-27T00:04:57.668Z,9.656064
2018-03-27T00:05:09.855Z,9.656064
2018-03-27T00:05:22.282Z,9.656064
2018-03-27T00:05:34.410Z,9.656064
2018-03-27T00:05:46.545Z,9.656064
2018-03-27T00:05:58.675Z,9.656064
2018-03-27T00:06:10.862Z,3.218688
2018-03-27T00:06:22.995Z,6.437376
2018-03-27T00:06:35.187Z,8.04672
2018-03-27T00:06:47.402Z,8.04672
2018-03-27T00:06:59.536Z,8.04672
2018-03-27T00:07:11.714Z,6.437376
2018-03-27T00:07:23.847Z,6.437376
2018-03-27T00:07:36.010Z,6.437376
2018-03-27T00:07:48.143Z,6.437376
2018-03-27T00:08:00.291Z,6.437376
2018-03-27T00:08:12.527Z,4.828032
2018-03-27T00:08:24.654Z,4.828032
2018-03-27T00:08:36.794Z,4.828032
2018-03-27T00:08:48.936Z,4.828032
2018-03-27T00:09:01.072Z,4.828032
2018-03-27T00:09:13.190Z,4.828032
2018-03-27T00:09:25.362Z,8.04672
2018-03-27T00:09:37.495Z,8.04672
2018-03-27T00:09:49.713Z,8.04672
2018-03-27T00:10:01.920Z,8.04672
2018-03-27T00:10:14.085Z,3.218688
2018-03-27T00:10:26.235Z,4.828032
2018-03-27T00:10:38.529Z,4.828032
2018-03-27T00:10:50.682Z,6.437376
2018-03-27T00:11:02.845Z,6.437376
2018-03-27T00:11:15.036Z,6.437376
2018-03-27T00:11:27.167Z,6.437376
2018-03-27T00:11:39.289Z,6.437376
2018-03-27T00:11:51.445Z,8.04672
2018-03-27T00:12:03.590Z,6.437376
2018-03-27T00:12:15.753Z,6.437376
2018-03-27T00:12:27.873Z,6.437376
2018-03-27T00:12:40.423Z,8.04672
2018-03-27T00:12:52.713Z,8.04672
2018-03-27T00:13:04.886Z,8.04672
2018-03-27T00:13:17.077Z,9.656064
2018-03-27T00:13:29.278Z,9.656064
2018-03-27T00:13:42.415Z,9.656064
2018-03-27T00:13:54.534Z,9.656064
2018-03-27T00:14:06.666Z,3.218688
2018-03-27T00:14:18.801Z,3.218688
2018-03-27T00:14:30.935Z,6.437376
2018-03-27T00:14:43.076Z,6.437376
2018-03-27T00:14:55.202Z,6.437376
2018-03-27T00:15:07.344Z,1.609344
2018-03-27T00:15:19.483Z,1.609344
2018-03-27T00:15:31.664Z,1.609344
2018-03-27T00:15:43.811Z,4.828032
2018-03-27T00:15:56.134Z,4.828032
2018-03-27T00:16:08.304Z,6.437376
2018-03-27T00:16:20.436Z,6.437376
2018-03-27T00:16:32.912Z,6.437376
2018-03-27T00:16:45.053Z,6.437376
2018-03-27T00:16:57.271Z,9.656064
2018-03-27T00:17:09.507Z,8.04672
2018-03-27T00:17:21.636Z,8.04672
2018-03-27T00:17:33.765Z,8.04672
2018-03-27T00:17:46.000Z,8.04672
2018-03-27T00:17:58.147Z,8.04672
2018-03-27T00:18:10.287Z,6.437376
2018-03-27T00:18:22.477Z,6.437376
2018-03-27T00:18:34.613Z,6.437376
2018-03-27T00:18:46.765Z,6.437376
2018-03-27T00:18:58.901Z,6.437376
2018-03-27T00:19:11.053Z,8.04672
2018-03-27T00:19:23.192Z,8.04672
2018-03-27T00:19:35.329Z,8.04672
2018-03-27T00:19:47.471Z,8.04672
2018-03-27T00:19:59.606Z,8.04672
2018-03-27T00:20:11.796Z,6.437376
2018-03-27T00:20:23.957Z,6.437376
2018-03-27T00:20:36.068Z,6.437376
2018-03-27T00:20:48.207Z,8.04672
2018-03-27T00:21:00.369Z,8.04672
2018-03-27T00:21:12.532Z,6.437376
2018-03-27T00:21:24.679Z,6.437376
2018-03-27T00:21:36.813Z,6.437376
2018-03-27T00:21:48.954Z,6.437376
2018-03-27T00:22:01.117Z,6.437376
2018-03-27T00:22:13.258Z,4.828032
2018-03-27T00:22:25.395Z,4.828032
2018-03-27T00:22:37.522Z,4.828032
2018-03-27T00:22:49.886Z,4.828032
2018-03-27T00:23:02.018Z,4.828032
2018-03-27T00:23:14.171Z,3.218688
2018-03-27T00:23:26.311Z,3.218688
2018-03-27T00:23:38.506Z,6.437376
2018-03-27T00:23:50.636Z,6.437376
2018-03-27T00:24:02.766Z,6.437376
2018-03-27T00:24:14.899Z,6.437376
2018-03-27T00:24:27.046Z,6.437376
2018-03-27T00:24:39.169Z,8.04672
2018-03-27T00:24:51.316Z,8.04672
2018-03-27T00:25:03.477Z,8.04672
2018-03-27T00:25:15.611Z,8.04672
2018-03-27T00:25:27.762Z,8.04672
2018-03-27T00:25:39.899Z,8.04672
2018-03-27T00:25:52.043Z,8.04672
2018-03-27T00:26:04.235Z,3.218688
2018-03-27T00:26:16.369Z,6.437376
2018-03-27T00:26:28.514Z,6.437376
2018-03-27T00:26:40.689Z,6.437376
2018-03-27T00:26:52.820Z,6.437376
2018-03-27T00:27:04.964Z,1.609344
2018-03-27T00:27:17.113Z,3.218688
2018-03-27T00:27:29.245Z,3.218688
2018-03-27T00:27:41.379Z,3.218688
2018-03-27T00:27:53.634Z,6.437376
2018-03-27T00:28:05.790Z,8.04672
2018-03-27T00:28:17.995Z,8.04672
2018-03-27T00:28:30.134Z,8.04672
2018-03-27T00:28:42.344Z,8.04672
2018-03-27T00:28:54.507Z,8.04672
2018-03-27T00:29:06.651Z,4.828032
2018-03-27T00:29:18.815Z,6.437376
2018-03-27T00:29:30.952Z,8.04672
2018-03-27T00:29:43.108Z,8.04672
2018-03-27T00:29:55.296Z,8.04672
2018-03-27T00:30:07.440Z,6.437376
2018-03-27T00:30:19.591Z,8.04672
2018-03-27T00:30:31.796Z,9.656064
2018-03-27T00:30:43.971Z,11.265408
2018-03-27T00:30:56.115Z,11.265408
2018-03-27T00:31:08.261Z,9.656064
2018-03-27T00:31:20.397Z,9.656064
2018-03-27T00:31:32.533Z,9.656064
2018-03-27T00:31:44.717Z,9.656064
2018-03-27T00:31:56.868Z,9.656064
2018-03-27T00:32:09.053Z,6.437376
2018-03-27T00:32:21.201Z,6.437376
2018-03-27T00:32:33.338Z,6.437376
2018-03-27T00:32:45.500Z,8.04672
2018-03-27T00:32:57.664Z,8.04672
2018-03-27T00:33:09.797Z,6.437376
2018-03-27T00:33:21.931Z,6.437376
2018-03-27T00:33:34.068Z,6.437376
2018-03-27T00:33:46.217Z,6.437376
2018-03-27T00:33:58.369Z,6.437376
2018-03-27T00:34:10.519Z,3.218688
2018-03-27T00:34:22.692Z,6.437376
2018-03-27T00:34:34.967Z,6.437376
2018-03-27T00:34:47.108Z,6.437376
2018-03-27T00:34:59.247Z,6.437376
2018-03-27T00:35:11.386Z,6.437376
2018-03-27T00:35:23.549Z,6.437376
2018-03-27T00:35:35.700Z,6.437376
2018-03-27T00:35:47.841Z,8.04672
2018-03-27T00:35:59.995Z,8.04672
2018-03-27T00:36:12.140Z,8.04672
2018-03-27T00:36:24.334Z,8.04672
2018-03-27T00:36:36.467Z,8.04672
2018-03-27T00:36:48.604Z,8.04672
2018-03-27T00:37:00.747Z,8.04672
2018-03-27T00:37:12.886Z,9.656064
2018-03-27T00:37:25.045Z,9.656064
2018-03-27T00:37:37.350Z,9.656064
2018-03-27T00:37:49.496Z,9.656064
2018-03-27T00:38:01.617Z,9.656064
2018-03-27T00:38:13.760Z,9.656064
2018-03-27T00:38:25.910Z,9.656064
2018-03-27T00:38:38.045Z,9.656064
2018-03-27T00:38:50.182Z,9.656064
2018-03-27T00:39:02.341Z,9.656064
2018-03-27T00:39:14.486Z,9.656064
2018-03-27T00:39:26.656Z,9.656064
2018-03-27T00:39:38.785Z,9.656064
2018-03-27T00:39:50.988Z,9.656064
2018-03-27T00:40:03.119Z,9.656064
2018-03-27T00:40:15.248Z,6.437376
2018-03-27T00:40:27.392Z,6.437376
2018-03-27T00:40:39.546Z,6.437376
2018-03-27T00:40:51.859Z,6.437376
2018-03-27T00:41:04.244Z,4.828032
2018-03-27T00:41:16.861Z,9.656064
2018-03-27T00:41:29.051Z,9.656064
2018-03-27T00:41:41.187Z,9.656064
2018-03-27T00:41:53.318Z,9.656064
2018-03-27T00:42:05.454Z,4.828032
2018-03-27T00:42:17.612Z,6.437376
2018-03-27T00:42:29.741Z,6.437376
2018-03-27T00:42:41.890Z,8.04672
2018-03-27T00:42:54.039Z,8.04672
2018-03-27T00:43:06.182Z,6.437376
2018-03-27T00:43:18.310Z,8.04672
2018-03-27T00:43:30.446Z,8.04672
2018-03-27T00:43:42.593Z,8.04672
2018-03-27T00:43:54.736Z,8.04672
2018-03-27T00:44:06.877Z,3.218688
2018-03-27T00:44:19.024Z,6.437376
2018-03-27T00:44:31.154Z,6.437376
2018-03-27T00:44:43.292Z,6.437376
2018-03-27T00:44:55.463Z,6.437376
2018-03-27T00:45:07.621Z,4.828032
2018-03-27T00:45:19.779Z,6.437376
2018-03-27T00:45:31.918Z,9.656064
2018-03-27T00:45:44.092Z,9.656064
2018-03-27T00:45:56.262Z,9.656064
2018-03-27T00:46:08.394Z,6.437376
2018-03-27T00:46:20.600Z,6.437376
2018-03-27T00:46:32.735Z,8.04672
2018-03-27T00:46:44.923Z,8.04672
2018-03-27T00:46:57.124Z,8.04672
2018-03-27T00:47:09.289Z,3.218688
2018-03-27T00:47:21.458Z,3.218688
2018-03-27T00:47:33.608Z,3.218688
2018-03-27T00:47:45.734Z,4.828032
2018-03-27T00:47:58.127Z,8.04672
2018-03-27T00:48:10.302Z,8.04672
2018-03-27T00:48:22.441Z,8.04672
2018-03-27T00:48:34.567Z,8.04672
2018-03-27T00:48:46.685Z,8.04672
2018-03-27T00:48:58.828Z,8.04672
2018-03-27T00:49:10.959Z,3.218688
2018-03-27T00:49:23.167Z,3.218688
2018-03-27T00:49:35.300Z,3.218688
2018-03-27T00:49:47.430Z,3.218688
2018-03-27T00:49:59.570Z,9.656064
2018-03-27T00:50:11.719Z,6.437376
2018-03-27T00:50:23.851Z,9.656064
2018-03-27T00:50:36.023Z,9.656064
2018-03-27T00:50:48.173Z,9.656064
2018-03-27T00:51:00.310Z,9.656064
2018-03-27T00:51:12.449Z,6.437376
2018-03-27T00:51:24.584Z,6.437376
2018-03-27T00:51:36.697Z,6.437376
2018-03-27T00:51:48.831Z,6.437376
2018-03-27T00:52:00.982Z,6.437376
2018-03-27T00:52:13.196Z,6.437376
2018-03-27T00:52:25.351Z,9.656064
2018-03-27T00:52:37.491Z,12.874752
2018-03-27T00:52:49.635Z,12.874752
2018-03-27T00:53:02.090Z,12.874752
2018-03-27T00:53:14.298Z,8.04672
2018-03-27T00:53:26.444Z,8.04672
2018-03-27T00:53:38.587Z,8.04672
2018-03-27T00:53:50.728Z,8.04672
2018-03-27T00:54:02.875Z,8.04672
2018-03-27T00:54:15.015Z,6.437376
2018-03-27T00:54:27.176Z,6.437376
2018-03-27T00:54:39.320Z,6.437376
2018-03-27T00:54:51.480Z,6.437376
2018-03-27T00:55:03.884Z,3.218688
2018-03-27T00:55:16.046Z,6.437376
2018-03-27T00:55:28.268Z,6.437376
2018-03-27T00:55:40.415Z,6.437376
2018-03-27T00:55:52.544Z,6.437376
2018-03-27T00:56:04.691Z,3.218688
2018-03-27T00:56:16.834Z,9.656064
2018-03-27T00:56:28.964Z,11.265408
2018-03-27T00:56:41.109Z,11.265408
2018-03-27T00:56:53.385Z,11.265408
2018-03-27T00:57:05.511Z,6.437376
2018-03-27T00:57:17.663Z,6.437376
2018-03-27T00:57:29.829Z,6.437376
2018-03-27T00:57:42.019Z,6.437376
2018-03-27T00:57:54.246Z,6.437376
2018-03-27T00:58:06.367Z,6.437376
2018-03-27T00:58:18.496Z,9.656064
2018-03-27T00:58:30.622Z,9.656064
2018-03-27T00:58:42.746Z,9.656064
2018-03-27T00:58:54.866Z,9.656064
2018-03-27T00:59:07.008Z,6.437376
2018-03-27T00:59:19.146Z,6.437376
2018-03-27T00:59:31.262Z,8.04672
2018-03-27T00:59:43.397Z,8.04672
2018-03-27T00:59:55.575Z,8.04672
2018-03-27T01:00:07.722Z,3.218688
2018-03-27T01:00:19.894Z,4.828032
2018-03-27T01:00:32.045Z,8.04672
2018-03-27T01:00:44.180Z,9.656064
2018-03-27T01:00:56.311Z,9.656064
2018-03-27T01:01:08.452Z,8.04672
2018-03-27T01:01:20.586Z,8.04672
2018-03-27T01:01:32.718Z,8.04672
2018-03-27T01:01:44.994Z,8.04672
2018-03-27T01:01:57.126Z,8.04672
2018-03-27T01:02:09.284Z,4.828032
2018-03-27T01:02:21.431Z,4.828032
2018-03-27T01:02:33.545Z,4.828032
2018-03-27T01:02:45.725Z,6.437376
2018-03-27T01:02:57.850Z,6.437376
2018-03-27T01:03:09.991Z,3.218688
2018-03-27T01:03:22.138Z,3.218688
2018-03-27T01:03:34.316Z,8.04672
2018-03-27T01:03:46.446Z,8.04672
2018-03-27T01:03:58.587Z,8.04672
2018-03-27T01:04:10.818Z,8.04672
2018-03-27T01:04:22.959Z,8.04672
2018-03-27T01:04:35.102Z,8.04672
2018-03-27T01:04:47.349Z,8.04672
2018-03-27T01:04:59.503Z,8.04672
2018-03-27T01:05:11.663Z,6.437376
2018-03-27T01:05:23.819Z,6.437376
2018-03-27T01:05:35.989Z,6.437376
2018-03-27T01:05:48.119Z,6.437376
2018-03-27T01:06:00.248Z,6.437376
2018-03-27T01:06:12.403Z,4.828032
2018-03-27T01:06:24.529Z,6.437376
2018-03-27T01:06:36.662Z,6.437376
2018-03-27T01:06:48.812Z,6.437376
2018-03-27T01:07:00.989Z,6.437376
2018-03-27T01:07:13.132Z,4.828032
2018-03-27T01:07:25.261Z,4.828032
2018-03-27T01:07:37.386Z,4.828032
2018-03-27T01:07:49.563Z,4.828032
2018-03-27T01:08:01.703Z,4.828032
2018-03-27T01:08:13.862Z,1.609344
2018-03-27T01:08:25.983Z,1.609344
2018-03-27T01:08:38.102Z,1.609344
2018-03-27T01:08:50.308Z,3.218688
2018-03-27T01:09:02.474Z,3.218688
2018-03-27T01:09:14.624Z,6.437376
2018-03-27T01:09:26.782Z,6.437376
2018-03-27T01:09:38.920Z,8.04672
2018-03-27T01:09:51.070Z,8.04672
2018-03-27T01:10:03.242Z,8.04672
2018-03-27T01:10:15.371Z,8.04672
2018-03-27T01:10:27.533Z,8.04672
2018-03-27T01:10:39.673Z,8.04672
2018-03-27T01:10:51.796Z,8.04672
2018-03-27T01:11:03.947Z,6.437376
2018-03-27T01:11:16.077Z,6.437376
2018-03-27T01:11:28.220Z,6.437376
2018-03-27T01:11:40.361Z,6.437376
2018-03-27T01:11:52.588Z,6.437376
2018-03-27T01:12:05.024Z,1.609344
2018-03-27T01:12:17.174Z,1.609344
2018-03-27T01:12:29.318Z,3.218688
2018-03-27T01:12:41.472Z,8.04672
2018-03-27T01:12:53.722Z,8.04672
2018-03-27T01:13:05.868Z,6.437376
2018-03-27T01:13:18.052Z,6.437376
2018-03-27T01:13:30.261Z,8.04672
2018-03-27T01:13:42.402Z,8.04672
2018-03-27T01:13:54.550Z,8.04672
2018-03-27T01:14:06.705Z,3.218688
2018-03-27T01:14:18.846Z,3.218688
2018-03-27T01:14:31.070Z,3.218688
2018-03-27T01:14:43.259Z,6.437376
2018-03-27T01:14:55.408Z,6.437376
2018-03-27T01:15:07.581Z,4.828032
2018-03-27T01:15:19.775Z,4.828032
2018-03-27T01:15:31.932Z,4.828032
2018-03-27T01:15:44.074Z,4.828032
2018-03-27T01:15:56.205Z,4.828032
2018-03-27T01:16:08.369Z,6.437376
2018-03-27T01:16:20.528Z,8.04672
2018-03-27T01:16:32.702Z,8.04672
2018-03-27T01:16:44.844Z,9.656064
2018-03-27T01:16:56.992Z,11.265408
2018-03-27T01:17:09.124Z,8.04672
2018-03-27T01:17:21.282Z,8.04672
2018-03-27T01:17:33.423Z,8.04672
2018-03-27T01:17:45.566Z,9.656064
2018-03-27T01:17:57.745Z,9.656064
2018-03-27T01:18:09.892Z,9.656064
2018-03-27T01:18:22.051Z,9.656064
2018-03-27T01:18:34.234Z,9.656064
2018-03-27T01:18:46.365Z,9.656064
2018-03-27T01:18:58.516Z,9.656064
2018-03-27T01:19:10.692Z,6.437376
2018-03-27T01:19:22.900Z,8.04672
2018-03-27T01:19:35.045Z,8.04672
2018-03-27T01:19:47.251Z,8.04672
2018-03-27T01:19:59.382Z,8.04672
2018-03-27T01:20:11.574Z,8.04672
2018-03-27T01:20:23.708Z,8.04672
2018-03-27T01:20:35.849Z,8.04672
2018-03-27T01:20:47.996Z,8.04672
2018-03-27T01:21:00.134Z,8.04672
2018-03-27T01:21:12.287Z,9.656064
2018-03-27T01:21:24.417Z,9.656064
2018-03-27T01:21:36.556Z,9.656064
2018-03-27T01:21:48.738Z,9.656064
2018-03-27T01:22:00.881Z,9.656064
2018-03-27T01:22:12.995Z,6.437376
2018-03-27T01:22:25.157Z,6.437376
2018-03-27T01:22:37.291Z,6.437376
2018-03-27T01:22:49.427Z,6.437376
2018-03-27T01:23:01.814Z,6.437376
2018-03-27T01:23:13.970Z,6.437376
2018-03-27T01:23:26.184Z,6.437376
2018-03-27T01:23:38.336Z,8.04672
2018-03-27T01:23:50.532Z,9.656064
2018-03-27T01:24:02.709Z,9.656064
2018-03-27T01:24:14.865Z,6.437376
2018-03-27T01:24:27.085Z,6.437376
2018-03-27T01:24:39.265Z,8.04672
2018-03-27T01:24:51.396Z,8.04672
2018-03-27T01:25:03.547Z,6.437376
2018-03-27T01:25:15.705Z,8.04672
2018-03-27T01:25:27.840Z,8.04672
2018-03-27T01:25:40.001Z,8.04672
2018-03-27T01:25:52.131Z,8.04672
2018-03-27T01:26:04.260Z,6.437376
2018-03-27T01:26:16.397Z,8.04672
2018-03-27T01:26:28.525Z,8.04672
2018-03-27T01:26:40.702Z,8.04672
2018-03-27T01:26:52.820Z,8.04672
2018-03-27T01:27:04.950Z,8.04672
2018-03-27T01:27:17.087Z,9.656064
2018-03-27T01:27:29.277Z,9.656064
2018-03-27T01:27:41.401Z,9.656064
2018-03-27T01:27:53.590Z,9.656064
2018-03-27T01:28:05.728Z,8.04672
2018-03-27T01:28:17.872Z,8.04672
2018-03-27T01:28:30.013Z,8.04672
2018-03-27T01:28:42.130Z,8.04672
2018-03-27T01:28:54.256Z,8.04672
2018-03-27T01:29:06.407Z,6.437376
2018-03-27T01:29:18.531Z,6.437376
2018-03-27T01:29:30.724Z,8.04672
2018-03-27T01:29:42.854Z,8.04672
2018-03-27T01:29:55.031Z,9.656064
2018-03-27T01:30:07.198Z,9.656064
2018-03-27T01:30:19.329Z,9.656064
2018-03-27T01:30:31.459Z,9.656064
2018-03-27T01:30:43.619Z,9.656064
2018-03-27T01:30:55.734Z,9.656064
2018-03-27T01:31:07.885Z,3.218688
2018-03-27T01:31:20.069Z,3.218688
2018-03-27T01:31:32.214Z,3.218688
2018-03-27T01:31:44.348Z,3.218688
2018-03-27T01:31:56.492Z,3.218688
2018-03-27T01:32:08.625Z,3.218688
2018-03-27T01:32:20.816Z,4.828032
2018-03-27T01:32:32.949Z,8.04672
2018-03-27T01:32:45.084Z,8.04672
2018-03-27T01:32:57.270Z,8.04672
2018-03-27T01:33:09.460Z,6.437376
2018-03-27T01:33:21.617Z,8.04672
2018-03-27T01:33:33.815Z,8.04672
2018-03-27T01:33:45.945Z,8.04672
2018-03-27T01:33:58.079Z,8.04672
2018-03-27T01:34:10.212Z,3.218688
2018-03-27T01:34:22.380Z,3.218688
2018-03-27T01:34:34.507Z,6.437376
2018-03-27T01:34:46.653Z,8.04672
2018-03-27T01:34:58.828Z,8.04672
2018-03-27T01:35:11.046Z,6.437376
2018-03-27T01:35:23.199Z,8.04672
2018-03-27T01:35:35.399Z,11.265408
2018-03-27T01:35:47.529Z,11.265408
2018-03-27T01:35:59.663Z,11.265408
2018-03-27T01:36:11.807Z,8.04672
2018-03-27T01:36:23.965Z,8.04672
2018-03-27T01:36:36.325Z,8.04672
2018-03-27T01:36:48.472Z,8.04672
2018-03-27T01:37:00.614Z,8.04672
2018-03-27T01:37:12.773Z,4.828032
2018-03-27T01:37:24.904Z,4.828032
2018-03-27T01:37:37.209Z,4.828032
2018-03-27T01:37:49.365Z,6.437376
2018-03-27T01:38:01.508Z,6.437376
2018-03-27T01:38:13.692Z,6.437376
2018-03-27T01:38:25.839Z,6.437376
2018-03-27T01:38:38.028Z,6.437376
2018-03-27T01:38:50.151Z,6.437376
2018-03-27T01:39:02.298Z,6.437376
2018-03-27T01:39:14.436Z,6.437376
2018-03-27T01:39:26.589Z,6.437376
2018-03-27T01:39:38.732Z,6.437376
2018-03-27T01:39:50.890Z,6.437376
2018-03-27T01:40:03.052Z,6.437376
2018-03-27T01:40:15.171Z,4.828032
2018-03-27T01:40:27.305Z,8.04672
2018-03-27T01:40:39.452Z,9.656064
2018-03-27T01:40:51.619Z,9.656064
2018-03-27T01:41:04.034Z,8.04672
2018-03-27T01:41:16.183Z,8.04672
2018-03-27T01:41:28.324Z,8.04672
2018-03-27T01:41:40.509Z,8.04672
2018-03-27T01:41:52.632Z,8.04672
2018-03-27T01:42:04.780Z,3.218688
2018-03-27T01:42:16.945Z,3.218688
2018-03-27T01:42:29.086Z,4.828032
2018-03-27T01:42:41.238Z,4.828032
2018-03-27T01:42:53.354Z,8.04672
2018-03-27T01:43:05.494Z,4.828032
2018-03-27T01:43:17.638Z,6.437376
2018-03-27T01:43:29.911Z,6.437376
2018-03-27T01:43:42.046Z,8.04672
2018-03-27T01:43:54.211Z,8.04672
2018-03-27T01:44:06.356Z,6.437376
2018-03-27T01:44:18.496Z,6.437376
2018-03-27T01:44:30.632Z,9.656064
2018-03-27T01:44:42.787Z,9.656064
2018-03-27T01:44:54.941Z,9.656064
2018-03-27T01:45:07.087Z,4.828032
2018-03-27T01:45:19.255Z,9.656064
2018-03-27T01:45:31.383Z,9.656064
2018-03-27T01:45:43.527Z,9.656064
2018-03-27T01:45:55.662Z,9.656064
2018-03-27T01:46:07.807Z,3.218688
2018-03-27T01:46:19.965Z,3.218688
2018-03-27T01:46:32.118Z,4.828032
2018-03-27T01:46:44.251Z,8.04672
2018-03-27T01:46:56.415Z,8.04672
2018-03-27T01:47:08.620Z,6.437376
2018-03-27T01:47:20.754Z,6.437376
2018-03-27T01:47:32.878Z,9.656064
2018-03-27T01:47:45.074Z,9.656064
2018-03-27T01:47:57.307Z,9.656064
2018-03-27T01:48:09.447Z,3.218688
2018-03-27T01:48:21.590Z,3.218688
2018-03-27T01:48:33.718Z,8.04672
2018-03-27T01:48:45.860Z,9.656064
2018-03-27T01:48:58.000Z,9.656064
2018-03-27T01:49:10.152Z,6.437376
2018-03-27T01:49:22.296Z,8.04672
2018-03-27T01:49:34.491Z,8.04672
2018-03-27T01:49:46.640Z,8.04672
2018-03-27T01:49:58.787Z,8.04672
2018-03-27T01:50:10.938Z,8.04672
2018-03-27T01:50:23.131Z,9.656064
2018-03-27T01:50:35.265Z,9.656064
2018-03-27T01:50:47.415Z,11.265408
2018-03-27T01:50:59.532Z,11.265408
2018-03-27T01:51:11.753Z,8.04672
2018-03-27T01:51:23.890Z,9.656064
2018-03-27T01:51:36.048Z,11.265408
2018-03-27T01:51:48.173Z,11.265408
2018-03-27T01:52:00.305Z,11.265408
2018-03-27T01:52:12.436Z,6.437376
2018-03-27T01:52:24.578Z,6.437376
2018-03-27T01:52:36.735Z,6.437376
2018-03-27T01:52:48.891Z,6.437376
2018-03-27T01:53:01.562Z,6.437376
2018-03-27T01:53:13.763Z,3.218688
2018-03-27T01:53:25.915Z,6.437376
2018-03-27T01:53:38.056Z,6.437376
2018-03-27T01:53:50.227Z,8.04672
2018-03-27T01:54:02.438Z,8.04672
2018-03-27T01:54:14.564Z,9.656064
2018-03-27T01:54:26.900Z,9.656064
2018-03-27T01:54:39.041Z,9.656064
2018-03-27T01:54:51.182Z,9.656064
2018-03-27T01:55:03.538Z,3.218688
2018-03-27T01:55:15.677Z,3.218688
2018-03-27T01:55:27.841Z,3.218688
2018-03-27T01:55:39.984Z,6.437376
2018-03-27T01:55:52.110Z,6.437376
2018-03-27T01:56:04.236Z,4.828032
2018-03-27T01:56:16.384Z,4.828032
2018-03-27T01:56:28.597Z,4.828032
2018-03-27T01:56:40.763Z,4.828032
2018-03-27T01:56:53.014Z,4.828032
2018-03-27T01:57:05.163Z,1.609344
2018-03-27T01:57:17.300Z,6.437376
2018-03-27T01:57:29.431Z,6.437376
2018-03-27T01:57:41.560Z,6.437376
2018-03-27T01:57:53.703Z,6.437376
2018-03-27T01:58:05.839Z,6.437376
2018-03-27T01:58:17.999Z,6.437376
2018-03-27T01:58:30.120Z,6.437376
2018-03-27T01:58:42.295Z,8.04672
2018-03-27T01:58:54.429Z,8.04672
2018-03-27T01:59:06.570Z,3.218688
2018-03-27T01:59:18.756Z,8.04672
2018-03-27T01:59:30.949Z,8.04672
2018-03-27T01:59:43.079Z,8.04672
2018-03-27T01:59:55.219Z,8.04672
2018-03-27T02:00:07.364Z,6.437376
2018-03-27T02:00:19.521Z,6.437376
2018-03-27T02:00:31.730Z,6.437376
2018-03-27T02:00:43.865Z,6.437376
2018-03-27T02:00:56.052Z,6.437376
2018-03-27T02:01:08.203Z,1.609344
2018-03-27T02:01:20.335Z,6.437376
2018-03-27T02:01:32.534Z,6.437376
2018-03-27T02:01:44.644Z,6.437376
2018-03-27T02:01:56.866Z,6.437376
2018-03-27T02:02:09.006Z,3.218688
2018-03-27T02:02:21.144Z,11.265408
2018-03-27T02:02:33.295Z,14.484096
2018-03-27T02:02:45.426Z,14.484096
2018-03-27T02:02:57.550Z,14.484096
2018-03-27T02:03:09.681Z,6.437376
2018-03-27T02:03:21.808Z,9.656064
2018-03-27T02:03:33.953Z,12.874752
2018-03-27T02:03:46.099Z,12.874752
2018-03-27T02:03:58.402Z,12.874752
2018-03-27T02:04:10.567Z,11.265408
2018-03-27T02:04:22.716Z,11.265408
2018-03-27T02:04:34.875Z,11.265408
2018-03-27T02:04:47.018Z,11.265408
2018-03-27T02:04:59.154Z,11.265408
2018-03-27T02:05:11.387Z,11.265408
2018-03-27T02:05:23.751Z,11.265408
2018-03-27T02:05:35.892Z,12.874752
2018-03-27T02:05:48.032Z,12.874752
2018-03-27T02:06:00.152Z,12.874752
2018-03-27T02:06:12.278Z,11.265408
2018-03-27T02:06:24.413Z,11.265408
2018-03-27T02:06:36.557Z,11.265408
2018-03-27T02:06:48.695Z,11.265408
2018-03-27T02:07:00.842Z,11.265408
2018-03-27T02:07:13.061Z,8.04672
2018-03-27T02:07:25.226Z,8.04672
2018-03-27T02:07:37.373Z,8.04672
2018-03-27T02:07:49.553Z,8.04672
2018-03-27T02:08:01.710Z,8.04672
2018-03-27T02:08:13.834Z,3.218688
2018-03-27T02:08:25.999Z,3.218688
2018-03-27T02:08:38.179Z,3.218688
2018-03-27T02:08:50.311Z,4.828032
2018-03-27T02:09:02.580Z,6.437376
2018-03-27T02:09:14.745Z,3.218688
2018-03-27T02:09:26.878Z,3.218688
2018-03-27T02:09:39.019Z,3.218688
2018-03-27T02:09:51.156Z,6.437376
2018-03-27T02:10:03.308Z,9.656064
2018-03-27T02:10:15.472Z,9.656064
2018-03-27T02:10:28.652Z,9.656064
2018-03-27T02:10:40.869Z,9.656064
2018-03-27T02:10:53.025Z,9.656064
2018-03-27T02:11:05.208Z,4.828032
2018-03-27T02:11:17.391Z,4.828032
2018-03-27T02:11:29.534Z,8.04672
2018-03-27T02:11:41.681Z,8.04672
2018-03-27T02:11:53.804Z,8.04672
2018-03-27T02:12:05.951Z,6.437376
2018-03-27T02:12:18.135Z,6.437376
2018-03-27T02:12:30.274Z,8.04672
2018-03-27T02:12:42.411Z,8.04672
2018-03-27T02:12:54.702Z,8.04672
2018-03-27T02:13:06.859Z,4.828032
2018-03-27T02:13:19.048Z,11.265408
2018-03-27T02:13:31.266Z,11.265408
2018-03-27T02:13:43.453Z,11.265408
2018-03-27T02:13:55.615Z,11.265408
2018-03-27T02:14:07.754Z,9.656064
2018-03-27T02:14:19.901Z,9.656064
2018-03-27T02:14:32.084Z,9.656064
2018-03-27T02:14:44.199Z,9.656064
2018-03-27T02:14:56.333Z,9.656064
2018-03-27T02:15:08.471Z,6.437376
2018-03-27T02:15:20.607Z,8.04672
2018-03-27T02:15:32.731Z,8.04672
2018-03-27T02:15:45.080Z,8.04672
2018-03-27T02:15:57.448Z,11.265408
2018-03-27T02:16:09.677Z,8.04672
2018-03-27T02:16:21.805Z,8.04672
2018-03-27T02:16:34.009Z,8.04672
2018-03-27T02:16:46.147Z,8.04672
2018-03-27T02:16:58.295Z,8.04672
2018-03-27T02:17:10.413Z,4.828032
2018-03-27T02:17:22.549Z,9.656064
2018-03-27T02:17:34.742Z,9.656064
2018-03-27T02:17:46.899Z,9.656064
2018-03-27T02:17:59.042Z,9.656064
2018-03-27T02:18:11.172Z,6.437376
2018-03-27T02:18:23.325Z,6.437376
2018-03-27T02:18:35.479Z,6.437376
2018-03-27T02:18:47.613Z,6.437376
2018-03-27T02:18:59.754Z,9.656064
2018-03-27T02:19:11.906Z,3.218688
2018-03-27T02:19:24.075Z,9.656064
2018-03-27T02:19:36.267Z,9.656064
2018-03-27T02:19:48.406Z,9.656064
2018-03-27T02:20:00.542Z,9.656064
2018-03-27T02:20:12.674Z,9.656064
2018-03-27T02:20:24.847Z,11.265408
2018-03-27T02:20:36.990Z,11.265408
2018-03-27T02:20:49.122Z,11.265408
2018-03-27T02:21:01.268Z,11.265408
2018-03-27T02:21:13.402Z,12.874752
2018-03-27T02:21:25.596Z,12.874752
2018-03-27T02:21:37.716Z,12.874752
2018-03-27T02:21:49.860Z,12.874752
2018-03-27T02:22:01.992Z,12.874752
2018-03-27T02:22:14.141Z,6.437376
2018-03-27T02:22:26.301Z,6.437376
2018-03-27T02:22:38.558Z,6.437376
2018-03-27T02:22:50.697Z,6.437376
2018-03-27T02:23:02.818Z,6.437376
2018-03-27T02:23:15.008Z,6.437376
2018-03-27T02:23:27.173Z,6.437376
2018-03-27T02:23:39.335Z,6.437376